Time;durP1;ratioP1;P1;durP2;ratioP2;P2;SDS_P1;SDS_P2;PMS_P1;PMS_P2;Temp;Humidity;BMP_temperature;BMP_pressure;BME280_temperature;BME280_humidity;BME280_pressure;Samples;Min_cycle;Max_cycle;Signal;HPM_P1;HPM_P2
2022/06/01 00:00:17;;;;;;;9.63;8.23;;;;;;;18.19;81.78;100853.98;1758816;81;21157;-86
2022/06/01 00:02:44;;;;;;;11.88;8.08;;;;;;;18.18;81.83;100859.75;1758156;81;20928;-87
2022/06/01 00:05:10;;;;;;;10.75;7.22;;;;;;;18.16;81.79;100857.75;1758563;81;20924;-87
2022/06/01 00:07:37;;;;;;;10.15;7.80;;;;;;;18.14;81.69;100862.34;1758379;80;20908;-87
2022/06/01 00:10:04;;;;;;;11.20;7.78;;;;;;;18.10;81.58;100856.95;1758223;81;20987;-87
2022/06/01 00:12:31;;;;;;;11.15;8.23;;;;;;;18.06;81.44;100862.67;1758211;81;21068;-87
2022/06/01 00:14:58;;;;;;;10.88;8.38;;;;;;;17.99;81.49;100861.88;1758179;81;20877;-87
2022/06/01 00:17:25;;;;;;;9.63;7.95;;;;;;;17.95;81.61;100858.30;1758223;81;20952;-86
2022/06/01 00:19:51;;;;;;;12.85;7.80;;;;;;;17.90;81.76;100855.22;1758160;81;20896;-87
2022/06/01 00:22:18;;;;;;;11.25;8.83;;;;;;;17.86;81.91;100856.45;1758312;81;20885;-86
2022/06/01 00:24:46;;;;;;;9.70;7.60;;;;;;;17.81;82.04;100856.36;1758204;81;21229;-86
2022/06/01 00:27:14;;;;;;;8.45;7.62;;;;;;;17.77;82.16;100854.08;1758491;81;20998;-87
2022/06/01 00:29:41;;;;;;;10.55;8.05;;;;;;;17.72;82.28;100848.30;1758249;81;20885;-86
2022/06/01 00:32:11;;;;;;;10.32;7.37;;;;;;;17.68;82.40;100856.20;1760854;78;20971;-87
2022/06/01 00:34:37;;;;;;;10.00;7.65;;;;;;;17.64;82.61;100849.47;1761292;78;20967;-87
2022/06/01 00:37:04;;;;;;;10.25;7.67;;;;;;;17.60;82.81;100848.88;1760902;78;21254;-87
2022/06/01 00:39:32;;;;;;;12.58;7.92;;;;;;;17.57;82.86;100851.81;1760683;78;20896;-86
2022/06/01 00:42:17;;;;;;;10.50;8.03;;;;;;;17.53;82.87;100851.22;1760743;78;20947;-88
2022/06/01 00:44:45;;;;;;;13.68;8.23;;;;;;;17.51;83.03;100848.36;1760572;78;20865;-86
2022/06/01 00:47:12;;;;;;;9.00;7.00;;;;;;;17.47;83.03;100840.30;1761007;78;20955;-86
2022/06/01 00:49:40;;;;;;;11.18;7.75;;;;;;;17.43;83.09;100838.42;1760800;78;21094;-87
2022/06/01 00:52:07;;;;;;;10.13;8.80;;;;;;;17.39;83.21;100846.28;1761165;78;20916;-87
2022/06/01 00:54:33;;;;;;;10.50;9.45;;;;;;;17.35;83.34;100844.84;1761301;80;20905;-87
2022/06/01 00:57:05;;;;;;;8.80;7.90;;;;;;;17.31;83.43;100837.63;1761321;78;20927;-87
2022/06/01 00:59:33;;;;;;;10.50;9.50;;;;;;;17.27;83.47;100841.51;1761559;79;21030;-86
2022/06/01 01:02:02;;;;;;;10.23;9.03;;;;;;;17.22;83.52;100843.72;1761553;81;21096;-86
2022/06/01 01:04:31;;;;;;;10.72;9.63;;;;;;;17.20;83.66;100843.00;1761413;81;20865;-87
2022/06/01 01:07:00;;;;;;;11.90;9.10;;;;;;;17.18;83.76;100825.89;1761370;78;21357;-87
2022/06/01 01:09:26;;;;;;;10.18;8.90;;;;;;;17.16;83.83;100834.49;1761427;78;20983;-86
2022/06/01 01:11:57;;;;;;;15.18;8.98;;;;;;;17.16;84.03;100837.60;1761420;81;20979;-86
2022/06/01 01:14:26;;;;;;;14.35;9.80;;;;;;;17.14;84.14;100836.42;1759126;81;21213;-86
2022/06/01 01:16:54;;;;;;;14.50;9.75;;;;;;;17.13;84.22;100832.08;1758154;81;20912;-87
2022/06/01 01:19:40;;;;;;;13.75;8.93;;;;;;;17.12;84.23;100834.85;1758035;81;20945;-87
2022/06/01 01:22:26;;;;;;;9.90;8.88;;;;;;;17.11;84.03;100834.02;1757107;81;20936;-87
2022/06/01 01:25:22;;;;;;;12.20;8.55;;;;;;;17.06;83.70;100830.92;1758343;81;21508;-87
2022/06/01 01:27:53;;;;;;;18.12;9.30;;;;;;;17.03;83.51;100835.62;1758279;81;21263;-87
2022/06/01 01:30:44;;;;;;;10.53;8.15;;;;;;;16.97;83.52;100825.91;1758175;81;20845;-86
2022/06/01 01:33:17;;;;;;;14.40;8.95;;;;;;;16.96;83.68;100832.19;1758233;81;20936;-86
2022/06/01 01:35:47;;;;;;;9.10;8.18;;;;;;;16.96;83.86;100826.02;1758184;81;20991;-87
2022/06/01 01:38:32;;;;;;;11.50;9.28;;;;;;;16.96;83.93;100828.22;1758112;81;20939;-87
2022/06/01 01:41:14;;;;;;;12.15;8.35;;;;;;;16.94;84.02;100814.25;1758103;80;21350;-86
2022/06/01 01:43:55;;;;;;;13.80;8.60;;;;;;;16.93;84.00;100833.75;1758355;81;20853;-87
2022/06/01 01:46:22;;;;;;;11.83;9.15;;;;;;;16.92;83.74;100839.20;1752766;81;21026;-86
2022/06/01 01:48:50;;;;;;;21.90;14.50;;;;;;;16.91;83.76;100840.98;1758028;81;20899;-87
2022/06/01 01:51:22;;;;;;;19.07;12.95;;;;;;;16.91;83.82;100834.85;1758330;81;21497;-87
2022/06/01 01:53:48;;;;;;;12.35;10.48;;;;;;;16.90;83.92;100831.86;1758151;80;21811;-86
2022/06/01 01:56:51;;;;;;;15.53;11.80;;;;;;;16.89;83.97;100831.00;1746450;81;20913;-86
2022/06/01 01:59:35;;;;;;;13.20;11.03;;;;;;;16.86;83.90;100851.13;1736896;81;20889;-87
2022/06/01 02:02:40;;;;;;;12.98;10.48;;;;;;;16.83;83.81;100840.80;1744646;81;20937;-88
2022/06/01 02:12:42;;;;;;;12.50;11.20;;;;;;;16.78;84.03;100853.53;1758774;80;20924;-88
2022/06/01 02:15:14;;;;;;;12.95;9.88;;;;;;;16.78;84.04;100845.12;1759408;81;22128;-86
2022/06/01 02:17:49;;;;;;;17.52;9.33;;;;;;;16.78;84.06;100834.53;1759002;80;21369;-87
2022/06/01 02:20:27;;;;;;;9.90;8.90;;;;;;;16.76;84.08;100832.49;1758902;80;21390;-87
2022/06/01 02:22:54;;;;;;;13.53;10.55;;;;;;;16.75;84.13;100833.93;1758557;80;21023;-86
2022/06/01 02:25:21;;;;;;;10.55;9.30;;;;;;;16.75;84.45;100837.41;1758815;81;20884;-87
2022/06/01 02:27:48;;;;;;;15.05;10.23;;;;;;;16.77;84.59;100846.56;1758786;80;21167;-87
2022/06/01 02:30:32;;;;;;;12.20;9.40;;;;;;;16.79;84.78;100835.36;1758457;80;20999;-87
2022/06/01 02:32:57;;;;;;;15.93;10.53;;;;;;;16.83;84.88;100843.45;1758431;80;20888;-88
2022/06/01 02:35:24;;;;;;;12.80;10.72;;;;;;;16.86;84.80;100856.92;1758684;80;20932;-88
2022/06/01 02:37:54;;;;;;;15.35;9.78;;;;;;;16.89;85.11;100852.68;1759007;80;20877;-87
2022/06/01 02:40:24;;;;;;;13.90;10.40;;;;;;;16.94;85.35;100846.05;1758738;81;21699;-88
2022/06/01 02:42:52;;;;;;;14.30;9.48;;;;;;;16.99;85.22;100836.39;1758578;80;20920;-88
2022/06/01 02:45:22;;;;;;;11.18;9.98;;;;;;;17.04;85.27;100852.73;1758743;80;20922;-89
2022/06/01 02:47:52;;;;;;;14.00;9.75;;;;;;;17.10;85.22;100850.90;1758706;80;20971;-86
2022/06/01 02:50:22;;;;;;;11.30;9.10;;;;;;;17.15;85.08;100852.67;1758870;80;20991;-86
2022/06/01 02:52:48;;;;;;;17.48;11.05;;;;;;;17.20;84.92;100848.30;1758877;80;21234;-87
2022/06/01 02:55:15;;;;;;;12.15;10.05;;;;;;;17.24;84.71;100843.59;1758832;81;21015;-87
2022/06/01 02:57:42;;;;;;;11.48;9.45;;;;;;;17.27;84.47;100840.18;1759395;81;20900;-85
2022/06/01 03:00:17;;;;;;;14.87;10.18;;;;;;;17.30;84.30;100847.06;1761169;78;20983;-86
2022/06/01 03:02:49;;;;;;;20.05;10.72;;;;;;;17.34;84.14;100861.70;1760508;78;20967;-87
2022/06/01 03:05:19;;;;;;;11.18;8.00;;;;;;;17.37;84.00;100850.86;1761512;78;20975;-87
2022/06/01 03:07:46;;;;;;;10.58;9.53;;;;;;;17.39;83.91;100847.11;1761149;78;20948;-85
2022/06/01 03:10:13;;;;;;;10.68;9.43;;;;;;;17.43;83.94;100853.00;1761563;78;21121;-87
2022/06/01 03:12:41;;;;;;;11.05;9.10;;;;;;;17.49;83.92;100858.25;1761671;78;20897;-87
2022/06/01 03:15:09;;;;;;;15.50;9.15;;;;;;;17.52;83.81;100856.19;1761619;78;20786;-88
2022/06/01 03:17:36;;;;;;;13.78;8.88;;;;;;;17.58;83.75;100855.64;1761360;78;21206;-87
2022/06/01 03:20:08;;;;;;;10.88;9.28;;;;;;;17.65;83.64;100844.52;1761400;78;20977;-85
2022/06/01 03:22:36;;;;;;;14.73;9.65;;;;;;;17.71;83.63;100842.17;1761545;81;21019;-85
2022/06/01 03:25:06;;;;;;;13.05;9.08;;;;;;;17.78;83.58;100850.44;1761639;79;20904;-85
2022/06/01 03:27:34;;;;;;;14.53;10.80;;;;;;;17.83;83.51;100853.58;1761707;81;20856;-86
2022/06/01 03:30:03;;;;;;;13.40;8.83;;;;;;;17.90;83.40;100858.70;1761758;78;21124;-86
2022/06/01 03:32:29;;;;;;;10.58;9.43;;;;;;;17.95;83.30;100851.16;1761432;81;20916;-86
2022/06/01 03:34:56;;;;;;;15.35;10.60;;;;;;;18.01;83.22;100852.45;1761731;79;20881;-87
2022/06/01 03:37:22;;;;;;;17.00;8.75;;;;;;;18.07;83.15;100861.68;1761565;81;20861;-86
2022/06/01 03:39:49;;;;;;;14.45;9.10;;;;;;;18.13;83.04;100866.45;1761509;81;20865;-86
2022/06/01 03:42:16;;;;;;;15.10;8.53;;;;;;;18.17;82.94;100875.34;1760478;81;21089;-85
2022/06/01 03:47:27;;;;;;;14.90;9.43;;;;;;;18.27;82.92;100868.72;1758551;81;21428;-87
2022/06/01 03:49:54;;;;;;;15.35;9.20;;;;;;;18.33;82.91;100866.02;1758559;81;20841;-86
2022/06/01 03:52:21;;;;;;;14.45;8.63;;;;;;;18.38;82.92;100869.93;1758483;81;20877;-86
2022/06/01 03:54:47;;;;;;;11.28;8.38;;;;;;;18.44;82.95;100877.85;1758128;81;21271;-87
2022/06/01 03:57:14;;;;;;;11.57;8.23;;;;;;;18.49;83.04;100870.80;1758403;81;20873;-87
2022/06/01 03:59:41;;;;;;;9.88;7.65;;;;;;;18.54;83.19;100856.14;1758892;81;20885;-87
2022/06/01 04:02:07;;;;;;;10.82;7.05;;;;;;;18.62;83.07;100854.95;1758162;81;20967;-87
2022/06/01 04:04:35;;;;;;;7.92;5.90;;;;;;;18.70;82.85;100858.25;1758363;81;21354;-87
2022/06/01 04:07:01;;;;;;;9.80;6.10;;;;;;;18.81;82.58;100859.97;1758376;80;21186;-85
2022/06/01 04:09:29;;;;;;;9.43;6.45;;;;;;;18.98;82.30;100855.75;1749824;80;21410;-87
2022/06/01 04:11:56;;;;;;;15.75;6.97;;;;;;;19.28;81.67;100856.08;1744879;82;20960;-87
2022/06/01 04:14:25;;;;;;;12.23;6.55;;;;;;;19.62;80.52;100853.73;1745088;81;20917;-87
2022/06/01 04:16:51;;;;;;;10.18;6.03;;;;;;;20.00;78.98;100850.59;1745151;82;21050;-87
2022/06/01 04:19:19;;;;;;;10.43;5.47;;;;;;;20.45;76.71;100854.27;1745143;80;21102;-87
2022/06/01 04:21:50;;;;;;;11.60;5.92;;;;;;;20.88;74.60;100857.55;1744883;81;20936;-88
2022/06/01 04:24:19;;;;;;;9.35;5.50;;;;;;;21.32;72.83;100854.90;1745126;82;20853;-88
2022/06/01 04:26:45;;;;;;;14.87;5.58;;;;;;;21.81;71.05;100857.05;1745232;81;21004;-87
2022/06/01 04:29:14;;;;;;;10.30;5.15;;;;;;;22.28;68.70;100865.11;1745412;80;20940;-89
2022/06/01 04:31:41;;;;;;;11.83;4.75;;;;;;;22.70;66.64;100858.34;1745314;81;21254;-88
2022/06/01 04:34:07;;;;;;;14.73;9.55;;;;;;;23.15;65.04;100864.23;1745212;82;20889;-85
2022/06/01 04:36:34;;;;;;;9.13;6.85;;;;;;;23.57;63.17;100865.33;1745303;81;20893;-89
2022/06/01 04:39:01;;;;;;;11.22;4.65;;;;;;;23.92;62.30;100867.28;1745099;81;21386;-87
2022/06/01 04:41:28;;;;;;;10.35;6.72;;;;;;;24.23;60.83;100869.63;1745020;81;20971;-88
2022/06/01 04:43:55;;;;;;;10.70;5.92;;;;;;;24.50;59.64;100866.98;1745037;81;21521;-87
2022/06/01 04:46:23;;;;;;;10.03;5.28;;;;;;;24.76;58.48;100864.80;1745115;81;20865;-88
2022/06/01 04:48:50;;;;;;;8.83;4.17;;;;;;;24.99;57.58;100862.12;1745323;80;20905;-87
2022/06/01 04:51:17;;;;;;;6.87;4.33;;;;;;;25.18;56.42;100863.96;1744946;81;21144;-87
2022/06/01 04:53:44;;;;;;;7.00;4.42;;;;;;;25.42;55.78;100869.12;1745009;81;21319;-86
2022/06/01 04:56:11;;;;;;;12.07;4.80;;;;;;;25.72;54.97;100863.76;1745204;81;21363;-87
2022/06/01 04:58:39;;;;;;;12.70;4.58;;;;;;;26.03;54.09;100861.41;1745024;81;20928;-88
2022/06/01 05:01:07;;;;;;;7.60;4.03;;;;;;;26.34;53.64;100862.50;1744926;81;21030;-88
2022/06/01 05:03:33;;;;;;;13.05;4.47;;;;;;;26.66;52.69;100860.41;1744835;81;20905;-87
2022/06/01 05:05:59;;;;;;;6.80;4.08;;;;;;;26.97;52.00;100861.41;1745023;81;20880;-87
2022/06/01 05:08:26;;;;;;;7.85;4.97;;;;;;;27.28;51.29;100857.55;1745642;80;21454;-86
2022/06/01 05:10:52;;;;;;;7.80;4.62;;;;;;;27.52;50.46;100861.62;1758322;81;21457;-87
2022/06/01 05:13:19;;;;;;;7.92;4.05;;;;;;;27.78;49.99;100854.73;1758506;80;21377;-88
2022/06/01 05:15:50;;;;;;;8.88;4.15;;;;;;;28.05;49.37;100855.70;1758482;81;20940;-88
2022/06/01 05:18:17;;;;;;;9.20;3.87;;;;;;;28.28;48.63;100858.05;1758487;81;20965;-89
2022/06/01 05:20:44;;;;;;;10.90;4.97;;;;;;;28.56;48.17;100862.53;1758659;81;21109;-86
2022/06/01 05:23:12;;;;;;;8.70;4.70;;;;;;;28.84;47.59;100859.14;1758230;81;20888;-87
2022/06/01 05:25:39;;;;;;;11.55;4.62;;;;;;;29.12;47.03;100852.72;1758271;80;20920;-88
2022/06/01 05:28:06;;;;;;;6.12;4.22;;;;;;;29.43;46.26;100853.94;1758152;80;21018;-86
2022/06/01 05:30:33;;;;;;;11.12;5.87;;;;;;;29.68;45.64;100850.91;1758173;81;20888;-85
2022/06/01 05:33:00;;;;;;;9.13;4.30;;;;;;;29.78;45.05;100861.26;1758154;81;21112;-85
2022/06/01 05:35:28;;;;;;;10.60;6.12;;;;;;;29.86;44.93;100858.33;1758234;81;20904;-87
2022/06/01 05:37:55;;;;;;;6.25;4.72;;;;;;;29.99;44.58;100862.01;1758042;80;21014;-86
2022/06/01 05:40:22;;;;;;;9.35;4.95;;;;;;;30.07;44.48;100864.48;1758259;81;21453;-85
2022/06/01 05:42:49;;;;;;;11.25;4.67;;;;;;;30.21;44.23;100867.41;1758147;81;21495;-88
2022/06/01 05:45:16;;;;;;;7.72;5.95;;;;;;;30.30;44.01;100868.85;1758322;81;21818;-87
2022/06/01 05:47:43;;;;;;;9.95;4.78;;;;;;;30.42;44.01;100874.96;1758298;80;20841;-87
2022/06/01 05:50:09;;;;;;;9.95;4.58;;;;;;;30.42;43.53;100874.43;1758756;81;20931;-86
2022/06/01 05:52:38;;;;;;;8.08;4.12;;;;;;;30.50;43.44;100872.80;1758389;80;20920;-90
2022/06/01 05:55:09;;;;;;;4.28;3.50;;;;;;;30.64;43.29;100871.36;1758320;81;21349;-87
2022/06/01 05:57:36;;;;;;;5.20;4.20;;;;;;;30.78;42.60;100876.47;1758872;81;21145;-87
2022/06/01 06:00:10;;;;;;;8.88;4.20;;;;;;;30.92;42.26;100874.52;1758583;80;20916;-86
2022/06/01 06:02:40;;;;;;;9.65;5.05;;;;;;;31.04;42.13;100876.50;1758428;81;21330;-87
2022/06/01 06:06:12;;;;;;;9.35;4.67;;;;;;;31.10;41.63;100868.32;1758457;81;21524;-86
2022/06/01 06:07:36;;;;;;;9.43;3.72;;;;;;;31.00;41.55;100869.89;1756634;81;20880;-86
2022/06/01 06:10:04;;;;;;;5.80;4.15;;;;;;;30.97;41.45;100867.93;1758343;80;21138;-87
2022/06/01 06:12:32;;;;;;;6.28;4.08;;;;;;;30.98;41.20;100863.34;1758206;80;20900;-88
2022/06/01 06:14:59;;;;;;;9.88;3.90;;;;;;;30.93;41.51;100870.77;1758387;81;20948;-88
2022/06/01 06:17:25;;;;;;;7.72;5.65;;;;;;;31.00;41.43;100863.95;1758174;81;21046;-86
2022/06/01 06:19:52;;;;;;;10.05;5.03;;;;;;;30.98;41.52;100866.86;1758359;80;20876;-87
2022/06/01 06:22:20;;;;;;;8.50;4.00;;;;;;;30.90;42.07;100863.59;1758374;81;21402;-88
2022/06/01 06:24:47;;;;;;;8.10;3.77;;;;;;;30.80;42.30;100859.19;1758314;81;20932;-87
2022/06/01 06:27:14;;;;;;;9.15;4.28;;;;;;;30.83;42.35;100853.32;1758151;81;20845;-87
2022/06/01 06:29:41;;;;;;;8.18;3.85;;;;;;;30.89;41.91;100860.61;1758224;80;20912;-86
2022/06/01 06:32:08;;;;;;;9.13;6.10;;;;;;;31.01;42.30;100856.64;1758494;81;20975;-87
2022/06/01 06:34:35;;;;;;;10.95;6.65;;;;;;;31.16;41.97;100857.13;1758399;81;21188;-87
2022/06/01 06:37:01;;;;;;;11.45;5.53;;;;;;;31.36;41.29;100860.48;1758546;81;20849;-88
2022/06/01 06:39:28;;;;;;;6.78;4.00;;;;;;;31.56;40.96;100865.72;1758687;81;20892;-86
2022/06/01 06:41:55;;;;;;;12.30;3.75;;;;;;;31.84;40.66;100854.89;1758608;80;21029;-87
2022/06/01 06:44:23;;;;;;;5.97;3.52;;;;;;;32.28;40.03;100854.22;1758345;81;20885;-87
2022/06/01 06:46:50;;;;;;;5.33;3.10;;;;;;;32.74;39.21;100851.91;1758237;80;21797;-85
2022/06/01 06:49:17;;;;;;;8.23;3.27;;;;;;;33.14;38.49;100853.45;1758161;81;20920;-87
2022/06/01 06:51:44;;;;;;;11.60;6.03;;;;;;;33.52;37.31;100852.66;1758409;81;20837;-87
2022/06/01 06:54:10;;;;;;;13.43;6.83;;;;;;;33.77;36.70;100844.23;1758476;81;20889;-87
2022/06/01 06:56:36;;;;;;;6.92;3.92;;;;;;;33.92;35.88;100834.20;1758548;81;20910;-88
2022/06/01 06:59:04;;;;;;;9.58;5.95;;;;;;;33.95;35.92;100834.55;1758803;81;21207;-87
2022/06/01 07:01:32;;;;;;;15.95;14.25;;;;;;;34.10;35.60;100833.17;1758454;81;21356;-86
2022/06/01 07:03:59;;;;;;;11.40;8.65;;;;;;;34.31;35.57;100833.89;1758378;81;20979;-86
2022/06/01 07:06:25;;;;;;;8.33;3.67;;;;;;;34.46;34.72;100834.67;1758745;81;21477;-88
2022/06/01 07:08:54;;;;;;;12.50;4.67;;;;;;;34.55;35.05;100837.31;1758386;81;20900;-87
2022/06/01 07:11:24;;;;;;;12.88;8.65;;;;;;;34.80;34.82;100835.56;1745931;80;21723;-87
2022/06/01 07:13:51;;;;;;;6.33;4.22;;;;;;;35.06;34.20;100835.94;1745371;81;20933;-87
2022/06/01 07:16:24;;;;;;;10.43;3.87;;;;;;;35.32;33.74;100840.45;1745636;81;20937;-84
2022/06/01 07:18:51;;;;;;;;;;;;;;;35.54;32.82;100841.83;1748277;81;20909;-86
2022/06/01 07:21:19;;;;;;;16.20;4.62;;;;;;;35.75;32.72;100835.56;1745624;80;20117;-87
2022/06/01 07:23:46;;;;;;;6.25;3.58;;;;;;;35.93;32.58;100840.41;1745181;82;21123;-86
2022/06/01 07:26:19;;;;;;;8.90;3.55;;;;;;;36.17;31.83;100832.78;1745451;81;20822;-88
2022/06/01 07:28:46;;;;;;;7.20;3.42;;;;;;;36.32;31.79;100834.30;1745187;81;21581;-88
2022/06/01 07:31:13;;;;;;;7.97;4.12;;;;;;;36.49;31.27;100829.55;1745196;80;20928;-87
2022/06/01 07:33:40;;;;;;;7.92;3.72;;;;;;;36.71;31.17;100828.12;1745229;81;20888;-88
2022/06/01 07:36:10;;;;;;;6.30;4.03;;;;;;;36.92;30.76;100831.00;1744952;81;22008;-88
2022/06/01 07:44:19;;;;;;;11.65;4.75;;;;;;;37.17;30.19;100828.98;1744963;81;20893;-87
2022/06/01 07:46:47;;;;;;;10.23;4.37;;;;;;;37.30;29.92;100827.70;1745277;81;20983;-86
2022/06/01 07:49:15;;;;;;;7.92;4.45;;;;;;;37.44;29.63;100825.30;1744979;81;21142;-87
2022/06/01 07:51:41;;;;;;;10.10;4.28;;;;;;;37.48;29.90;100825.86;1745071;81;20881;-88
2022/06/01 07:54:08;;;;;;;13.48;3.80;;;;;;;37.48;29.77;100831.89;1745073;82;20941;-88
2022/06/01 07:56:35;;;;;;;11.78;4.22;;;;;;;37.56;29.33;100828.68;1745292;81;20921;-88
2022/06/01 07:59:02;;;;;;;9.55;4.15;;;;;;;37.71;29.04;100825.19;1745192;80;20932;-88
2022/06/01 08:01:30;;;;;;;6.60;3.85;;;;;;;37.88;28.57;100827.69;1745551;82;21096;-87
2022/06/01 08:03:57;;;;;;;8.00;3.98;;;;;;;37.99;28.13;100824.43;1745981;80;21401;-85
2022/06/01 08:06:26;;;;;;;11.63;7.20;;;;;;;38.06;28.08;100824.46;1745984;81;20873;-87
2022/06/01 08:08:53;;;;;;;9.38;5.62;;;;;;;38.09;27.88;100814.35;1745018;81;20909;-87
2022/06/01 08:13:06;;;;;;;11.20;5.17;;;;;;;38.02;27.98;100815.17;1756215;80;21425;-89
2022/06/01 08:13:52;;;;;;;9.90;4.33;;;;;;;37.92;28.10;100815.92;1755876;81;21154;-87
2022/06/01 08:16:19;;;;;;;12.15;6.12;;;;;;;37.95;28.08;100809.08;1758313;81;20893;-86
2022/06/01 08:18:46;;;;;;;8.93;5.10;;;;;;;38.00;28.16;100812.37;1758344;81;21023;-87
2022/06/01 08:21:12;;;;;;;9.48;4.50;;;;;;;38.10;28.13;100809.69;1758277;81;21425;-88
2022/06/01 08:23:39;;;;;;;7.47;3.80;;;;;;;38.09;27.77;100806.69;1758812;81;20936;-87
2022/06/01 08:26:07;;;;;;;8.88;4.35;;;;;;;38.10;27.76;100809.69;1758598;81;21147;-88
2022/06/01 08:28:33;;;;;;;9.90;5.17;;;;;;;38.19;27.84;100802.58;1758546;81;20845;-87
2022/06/01 08:31:00;;;;;;;11.90;7.80;;;;;;;38.33;27.94;100801.48;1758553;81;20885;-87
2022/06/01 08:33:26;;;;;;;8.23;3.92;;;;;;;38.54;27.33;100800.42;1758162;81;20991;-86
2022/06/01 08:35:53;;;;;;;8.00;4.40;;;;;;;38.71;27.28;100806.16;1741357;81;20853;-89
2022/06/01 08:38:20;;;;;;;8.88;4.20;;;;;;;38.84;27.22;100797.92;1759061;81;21224;-88
2022/06/01 08:41:06;;;;;;;13.15;4.60;;;;;;;39.01;26.77;100794.91;1758334;81;21455;-89
2022/06/01 08:43:39;;;;;;;9.68;3.87;;;;;;;39.17;26.26;100796.50;1758624;81;21434;-88
2022/06/01 08:46:06;;;;;;;7.08;4.20;;;;;;;39.29;26.12;100793.45;1758458;81;20928;-88
2022/06/01 08:48:47;;;;;;;13.13;4.00;;;;;;;39.33;26.14;100794.52;1758490;80;20877;-88
2022/06/01 08:51:16;;;;;;;9.15;3.83;;;;;;;39.32;25.94;100788.77;1758328;80;21144;-87
2022/06/01 08:53:43;;;;;;;6.75;4.40;;;;;;;39.50;25.66;100810.67;1758277;80;20997;-87
2022/06/01 08:56:23;;;;;;;9.50;4.12;;;;;;;39.55;25.34;100810.09;1758590;81;20920;-87
2022/06/01 08:59:00;;;;;;;10.93;3.95;;;;;;;39.52;25.18;100814.78;1758136;81;21029;-88
2022/06/01 09:01:35;;;;;;;8.15;5.58;;;;;;;39.53;25.29;100810.95;1758360;81;21042;-86
2022/06/01 09:04:32;;;;;;;10.13;4.15;;;;;;;39.54;25.00;100815.32;1758376;81;23036;-88
2022/06/01 09:07:25;;;;;;;11.93;4.35;;;;;;;39.53;25.15;100817.81;1757946;81;21019;-87
2022/06/01 09:10:17;;;;;;;9.43;4.12;;;;;;;39.53;25.51;100813.69;1758204;80;21374;-87
2022/06/01 09:12:45;;;;;;;12.47;5.15;;;;;;;39.55;25.50;100807.34;1758295;81;20916;-85
2022/06/01 09:15:24;;;;;;;9.80;4.42;;;;;;;39.50;25.30;100811.49;1758520;81;20916;-88
2022/06/01 09:17:51;;;;;;;10.25;7.08;;;;;;;39.35;25.61;100800.55;1758189;81;21323;-86
2022/06/01 09:23:11;;;;;;;11.05;4.72;;;;;;;39.30;25.06;100806.06;1758681;80;20853;-86
2022/06/01 09:25:38;;;;;;;13.20;4.10;;;;;;;39.14;24.98;100806.11;1758386;81;20971;-88
2022/06/01 09:28:19;;;;;;;7.17;4.50;;;;;;;38.91;25.21;100808.89;1758852;81;20927;-87
2022/06/01 09:30:56;;;;;;;14.13;5.42;;;;;;;38.74;25.36;100800.14;1758282;81;21251;-86
2022/06/01 09:33:30;;;;;;;8.13;3.83;;;;;;;38.61;25.78;100797.96;1758347;81;20853;-86
2022/06/01 09:36:12;;;;;;;8.93;4.53;;;;;;;38.48;25.84;100791.92;1758250;81;20976;-86
2022/06/01 09:38:49;;;;;;;6.67;3.72;;;;;;;38.34;25.87;100792.18;1758328;81;21417;-87
2022/06/01 09:41:31;;;;;;;7.42;3.35;;;;;;;38.23;25.96;100787.80;1758335;80;21066;-89
2022/06/01 09:44:02;;;;;;;10.53;4.30;;;;;;;38.30;26.60;100789.71;1758302;80;21350;-87
2022/06/01 09:46:42;;;;;;;9.53;4.10;;;;;;;38.44;26.21;100786.69;1758285;81;20944;-89
2022/06/01 09:49:25;;;;;;;17.65;4.78;;;;;;;38.49;26.37;100790.84;1747616;81;20928;-87
2022/06/01 09:51:57;;;;;;;7.22;3.02;;;;;;;38.59;26.04;100796.04;1680254;85;21075;-87
2022/06/01 09:54:33;;;;;;;8.80;4.47;;;;;;;38.68;25.76;100793.83;1680756;85;20944;-87
2022/06/01 09:57:28;;;;;;;7.72;5.30;;;;;;;38.75;25.73;100798.50;1680570;85;21111;-88
2022/06/01 10:08:29;;;;;;;16.82;12.05;;;;;;;39.20;26.11;100801.97;1680368;85;20950;-87
2022/06/01 10:11:11;;;;;;;14.75;7.97;;;;;;;39.25;25.96;100796.48;1673784;85;22126;-88
2022/06/01 10:13:41;;;;;;;;;;;;;;;39.20;26.21;100796.48;1665162;84;21004;-88
2022/06/01 10:16:51;;;;;;;14.40;4.45;;;;;;;38.99;26.61;100797.10;1647963;87;20146;-87
2022/06/01 10:19:25;;;;;;;7.87;4.22;;;;;;;38.91;26.63;100802.03;1648800;87;21446;-87
2022/06/01 10:22:14;;;;;;;11.05;5.00;;;;;;;38.77;26.32;100796.83;1648080;87;21021;-86
2022/06/01 10:24:49;;;;;;;12.65;5.40;;;;;;;38.71;26.43;100793.81;1649312;87;21812;-88
2022/06/01 10:27:20;;;;;;;9.90;6.28;;;;;;;38.76;26.81;100796.58;1649141;87;21103;-85
2022/06/01 10:30:16;;;;;;;10.57;5.33;;;;;;;38.83;26.25;100797.66;1690377;85;20979;-87
2022/06/01 10:33:11;;;;;;;9.80;5.05;;;;;;;38.84;26.65;100790.51;1755140;81;21535;-86
2022/06/01 10:35:47;;;;;;;6.55;3.85;;;;;;;38.87;25.95;100791.90;1755086;81;21070;-87
2022/06/01 10:38:35;;;;;;;10.28;4.53;;;;;;;38.68;26.15;100793.83;1755122;81;21248;-86
2022/06/01 10:41:20;;;;;;;10.13;5.53;;;;;;;38.52;26.41;100792.20;1755181;81;21421;-87
2022/06/01 10:44:21;;;;;;;10.85;4.47;;;;;;;38.49;26.56;100789.47;1755154;80;21430;-88
2022/06/01 10:47:05;;;;;;;8.93;4.00;;;;;;;38.35;26.74;100791.92;1744217;81;20948;-88
2022/06/01 10:49:54;;;;;;;13.38;4.12;;;;;;;38.23;26.70;100787.80;1755486;80;21291;-87
2022/06/01 10:52:44;;;;;;;8.18;3.80;;;;;;;38.10;27.64;100790.52;1755279;80;21982;-86
2022/06/01 10:55:30;;;;;;;7.85;4.65;;;;;;;38.20;27.29;100789.69;1754511;80;20897;-86
2022/06/01 10:57:59;;;;;;;11.90;4.10;;;;;;;38.31;27.54;100786.70;1755221;81;20955;-88
2022/06/01 11:00:37;;;;;;;7.15;4.22;;;;;;;38.49;27.17;100785.36;1755142;81;20971;-86
2022/06/01 11:03:33;;;;;;;7.47;3.98;;;;;;;38.39;27.31;100777.66;1716531;81;20904;-87
2022/06/01 11:06:25;;;;;;;24.02;8.35;;;;;;;38.29;26.97;100782.60;1736601;81;21226;-87
2022/06/01 11:09:13;;;;;;;8.23;5.78;;;;;;;38.17;27.31;100776.00;1755769;81;20885;-87
2022/06/01 11:12:03;;;;;;;10.72;6.17;;;;;;;38.04;27.48;100778.75;1749713;80;20877;-87
2022/06/01 11:15:04;;;;;;;11.22;4.80;;;;;;;38.03;26.76;100781.20;1745602;81;20929;-88
2022/06/01 11:18:01;;;;;;;12.45;3.95;;;;;;;38.01;26.26;100784.72;1745457;81;20940;-87
2022/06/01 11:21:06;;;;;;;14.28;5.08;;;;;;;37.91;25.83;100780.61;1734591;81;21582;-86
2022/06/01 11:24:24;;;;;;;16.05;4.20;;;;;;;37.66;26.42;100787.64;1702776;83;20859;-88
2022/06/01 11:27:15;;;;;;;9.93;4.12;;;;;;;37.50;26.19;100788.66;1703037;83;20938;-87
2022/06/01 11:30:04;;;;;;;8.18;3.95;;;;;;;37.21;26.12;100788.27;1695010;83;20914;-87
2022/06/01 11:32:46;;;;;;;14.23;4.55;;;;;;;36.86;26.61;100789.66;1703122;83;20950;-90
2022/06/01 11:35:24;;;;;;;14.28;4.40;;;;;;;36.64;26.79;100783.80;1703495;84;21345;-88
2022/06/01 11:38:08;;;;;;;11.03;5.08;;;;;;;36.40;27.32;100773.73;1703003;84;20942;-88
2022/06/01 11:40:46;;;;;;;11.73;4.40;;;;;;;36.18;28.19;100773.81;1703127;83;20934;-87
2022/06/01 11:43:37;;;;;;;9.48;4.37;;;;;;;36.06;28.85;100778.05;1703070;83;21053;-88
2022/06/01 11:46:18;;;;;;;11.50;5.17;;;;;;;35.97;29.19;100774.66;1702892;84;20943;-87
2022/06/01 11:48:49;;;;;;;9.05;4.10;;;;;;;35.81;29.59;100775.87;1682201;84;22496;-88
2022/06/01 11:51:19;;;;;;;16.17;5.15;;;;;;;35.60;29.86;100776.16;1701991;84;21001;-87
2022/06/01 11:54:08;;;;;;;11.45;5.00;;;;;;;35.38;29.69;100784.34;1702603;83;21274;-88
2022/06/01 11:56:43;;;;;;;13.18;4.80;;;;;;;35.14;29.77;100776.94;1706685;82;21468;-87
2022/06/01 11:59:33;;;;;;;11.18;4.85;;;;;;;34.90;30.15;100774.11;1743600;81;21024;-86
2022/06/01 12:02:40;;;;;;;15.48;4.75;;;;;;;34.71;30.85;100776.27;1745177;81;21146;-86
2022/06/01 12:04:58;;;;;;;12.00;4.78;;;;;;;34.58;31.17;100776.88;1743927;81;20881;-89
2022/06/01 12:07:33;;;;;;;9.63;4.55;;;;;;;34.42;31.19;100773.08;1734317;81;20850;-88
2022/06/01 12:10:09;;;;;;;10.82;4.37;;;;;;;34.34;31.05;100772.66;1734955;82;20905;-88